PWSweather.com
Personal Weather Stations
Station Observations
MDHALE1
Southwest Baltimore Co., Halethorpe, MD 21227

Southwest Baltimore Co.Halethorpe, MD 21227

Lat: 39.23643, Lon: -76.696959

Elevation: 86

Station Type: Davis Vantage Pro2+

http://www.halethorpeweather.com

Latest ConditionsUpdated 12:45:00 PM EDT Thursday, Sep 29, 2016
Currently Today's Max Today's Min Today's Average
Temperature 65.8°F18.8°C 65.8°F18.8°C 64.0°F17.8°C 65.0°F18.3°C
Dew Point 64.6°F18.1°C 64.6°F18.1°C 62.8°F17.1°C 63.8°F17.7°C
Winds 8.1 mph NE13.0 kmh NE 15.0 mph ENE24.1 kmh ENE - 7.1 mph 11.4 kmh
Wind Gusts 15.0 mph24.1 kmh 19.6 mph31.5 kmh - -
Humidity 96% 97% 95% 96%
Pressure 30.18 in1022.0 mb 30.19 in1022.4 mb 30.06 in1017.9 mb -
Precipitation - 1.52 in38.6 mm - -
Hour Temp Dew Point Humidity Winds Wind Gusts Pressure Precip Precip Rate Daily Precip Total
12:45 PM 65.8°F18.8°C 64.6°F18.1°C 96% 8.1 mph NE13.0 kmh NE 15.0 mph24.1 kmh 30.18 in1022.0 mb - 0.00 in0.0 mm 1.52 in38.6 mm
12:30 PM 65.7°F18.7°C 64.6°F18.1°C 96% 8.1 mph NE13.0 kmh NE 12.7 mph20.4 kmh 30.18 in1022.0 mb - 0.00 in0.0 mm 1.52 in38.6 mm
12:15 PM 65.7°F18.7°C 64.6°F18.1°C 96% 9.2 mph NE14.8 kmh NE 13.8 mph22.2 kmh 30.18 in1022.0 mb - 0.00 in0.0 mm 1.52 in38.6 mm
12:00 PM 65.7°F18.7°C 64.5°F18.1°C 96% 15.0 mph ENE24.1 kmh ENE 17.3 mph27.8 kmh 30.18 in1022.0 mb - 0.01 in0.3 mm 1.52 in38.6 mm
11:45 AM 65.7°F18.7°C 64.5°F18.1°C 96% 10.4 mph ENE16.7 kmh ENE 18.4 mph29.6 kmh 30.18 in1022.0 mb - 0.00 in0.0 mm 1.51 in38.4 mm
11:30 AM 65.6°F18.7°C 64.5°F18.1°C 96% 9.2 mph ENE14.8 kmh ENE 15.0 mph24.1 kmh 30.19 in1022.4 mb - 0.00 in0.0 mm 1.51 in38.4 mm
11:15 AM 65.6°F18.7°C 64.4°F18.0°C 96% 8.1 mph ENE13.0 kmh ENE 11.5 mph18.5 kmh 30.18 in1022.0 mb - 0.00 in0.0 mm 1.51 in38.4 mm
11:00 AM 65.5°F18.6°C 64.6°F18.1°C 97% 8.1 mph NE13.0 kmh NE 19.6 mph31.5 kmh 30.17 in1021.7 mb - 0.00 in0.0 mm 1.51 in38.4 mm
10:45 AM 65.3°F18.5°C 64.4°F18.0°C 97% 6.9 mph E11.1 kmh E 16.1 mph25.9 kmh 30.17 in1021.7 mb - 0.01 in0.3 mm 1.51 in38.4 mm
10:30 AM 65.3°F18.5°C 64.1°F17.8°C 96% 12.7 mph NE20.4 kmh NE 13.8 mph22.2 kmh 30.18 in1022.0 mb - 0.00 in0.0 mm 1.50 in38.1 mm
10:15 AM 65.3°F18.5°C 64.4°F18.0°C 97% 11.5 mph NE18.5 kmh NE 15.0 mph24.1 kmh 30.17 in1021.7 mb - 0.00 in0.0 mm 1.50 in38.1 mm
10:00 AM 65.2°F18.4°C 64.0°F17.8°C 96% 6.9 mph NE11.1 kmh NE 11.5 mph18.5 kmh 30.17 in1021.7 mb - 0.00 in0.0 mm 1.50 in38.1 mm
09:45 AM 65.1°F18.4°C 64.2°F17.9°C 97% 5.8 mph E9.3 kmh E 6.9 mph11.1 kmh 30.16 in1021.3 mb - 0.00 in0.0 mm 1.50 in38.1 mm
09:30 AM 65.0°F18.3°C 64.1°F17.8°C 97% 5.8 mph NE9.3 kmh NE 10.4 mph16.7 kmh 30.16 in1021.3 mb - 0.02 in0.5 mm 1.50 in38.1 mm
09:15 AM 64.7°F18.2°C 63.8°F17.7°C 97% 4.6 mph ENE7.4 kmh ENE 4.6 mph7.4 kmh 30.14 in1020.7 mb - 0.08 in2.0 mm 1.48 in37.6 mm
09:00 AM 64.6°F18.1°C 63.8°F17.7°C 97% 9.2 mph NE14.8 kmh NE 15.0 mph24.1 kmh 30.15 in1021.0 mb - 0.20 in5.1 mm 1.42 in36.1 mm
08:45 AM 64.7°F18.2°C 63.8°F17.7°C 97% 9.2 mph NE14.8 kmh NE 17.3 mph27.8 kmh 30.15 in1021.0 mb - 0.10 in2.5 mm 1.23 in31.2 mm
08:30 AM 64.5°F18.1°C 63.6°F17.6°C 97% Calm Calm -- 30.16 in1021.3 mb - 0.11 in2.8 mm 1.13 in28.7 mm
08:15 AM 64.1°F17.8°C 63.2°F17.3°C 97% 5.8 mph NNE9.3 kmh NNE 6.9 mph11.1 kmh 30.15 in1021.0 mb - 0.07 in1.8 mm 1.03 in26.2 mm
08:04 AM 64.0°F17.8°C 62.8°F17.1°C 96% 5.8 mph N9.3 kmh N 9.2 mph14.8 kmh 30.15 in1021.0 mb - 0.03 in0.8 mm 0.97 in24.6 mm
08:00 AM 64.1°F17.8°C 62.9°F17.2°C 96% 2.3 mph NNE3.7 kmh NNE 4.6 mph7.4 kmh 30.15 in1021.0 mb - 0.13 in3.3 mm 0.95 in24.1 mm
07:45 AM 64.1°F17.8°C 62.9°F17.2°C 96% 3.5 mph NE5.6 kmh NE 8.1 mph13.0 kmh 30.14 in1020.7 mb - 0.06 in1.5 mm 0.83 in21.1 mm
07:30 AM 64.1°F17.8°C 63.0°F17.2°C 96% 8.1 mph NE13.0 kmh NE 12.7 mph20.4 kmh 30.12 in1020.0 mb - 0.02 in0.5 mm 0.77 in19.6 mm
07:15 AM 64.2°F17.9°C 63.0°F17.2°C 96% 10.4 mph NE16.7 kmh NE 18.4 mph29.6 kmh 30.12 in1020.0 mb - 0.05 in1.3 mm 0.75 in19.1 mm
07:00 AM 64.2°F17.9°C 63.0°F17.2°C 96% 8.1 mph NE13.0 kmh NE 12.7 mph20.4 kmh 30.11 in1019.6 mb - 0.00 in0.0 mm 0.70 in17.8 mm
06:45 AM 64.2°F17.9°C 63.0°F17.2°C 96% 1.2 mph NE1.9 kmh NE 6.9 mph11.1 kmh 30.11 in1019.6 mb - 0.01 in0.3 mm 0.70 in17.8 mm
06:30 AM 64.2°F17.9°C 63.0°F17.2°C 96% 6.9 mph NE11.1 kmh NE 12.7 mph20.4 kmh 30.11 in1019.6 mb - 0.02 in0.5 mm 0.69 in17.5 mm
06:15 AM 64.2°F17.9°C 63.0°F17.2°C 96% 3.5 mph NE5.6 kmh NE 10.4 mph16.7 kmh 30.11 in1019.6 mb - 0.02 in0.5 mm 0.68 in17.3 mm
06:00 AM 64.2°F17.9°C 63.0°F17.2°C 96% 6.9 mph NE11.1 kmh NE 10.4 mph16.7 kmh 30.10 in1019.3 mb - 0.00 in0.0 mm 0.66 in16.8 mm
05:45 AM 64.2°F17.9°C 63.0°F17.2°C 96% 8.1 mph NE13.0 kmh NE 10.4 mph16.7 kmh 30.10 in1019.3 mb - 0.01 in0.3 mm 0.66 in16.8 mm
05:30 AM 64.4°F18.0°C 63.3°F17.4°C 96% 6.9 mph NE11.1 kmh NE 10.4 mph16.7 kmh 30.09 in1019.0 mb - 0.04 in1.0 mm 0.65 in16.5 mm
05:15 AM 64.5°F18.1°C 63.3°F17.4°C 96% 9.2 mph NE14.8 kmh NE 16.1 mph25.9 kmh 30.10 in1019.3 mb - 0.07 in1.8 mm 0.61 in15.5 mm
05:00 AM 64.7°F18.2°C 63.5°F17.5°C 96% 6.9 mph NE11.1 kmh NE 11.5 mph18.5 kmh 30.10 in1019.3 mb - 0.12 in3.0 mm 0.55 in14.0 mm
04:45 AM 64.8°F18.2°C 63.6°F17.6°C 96% 5.8 mph NE9.3 kmh NE 8.1 mph13.0 kmh 30.10 in1019.3 mb - 0.06 in1.5 mm 0.43 in10.9 mm
04:30 AM 64.9°F18.3°C 63.7°F17.6°C 96% 8.1 mph ENE13.0 kmh ENE 11.5 mph18.5 kmh 30.09 in1019.0 mb - 0.08 in2.0 mm 0.38 in9.7 mm
04:15 AM 65.1°F18.4°C 63.9°F17.7°C 96% 6.9 mph NE11.1 kmh NE 10.4 mph16.7 kmh 30.09 in1019.0 mb - 0.05 in1.3 mm 0.31 in7.9 mm
04:00 AM 65.2°F18.4°C 64.0°F17.8°C 96% 5.8 mph NE9.3 kmh NE 10.4 mph16.7 kmh 30.08 in1018.6 mb - 0.04 in1.0 mm 0.26 in6.6 mm
03:45 AM 65.3°F18.5°C 64.1°F17.8°C 96% 3.5 mph ENE5.6 kmh ENE 10.4 mph16.7 kmh 30.09 in1019.0 mb - 0.05 in1.3 mm 0.23 in5.8 mm
03:30 AM 65.4°F18.6°C 64.2°F17.9°C 96% 4.6 mph NE7.4 kmh NE 16.1 mph25.9 kmh 30.09 in1019.0 mb - 0.04 in1.0 mm 0.19 in4.8 mm
03:15 AM 65.4°F18.6°C 64.2°F17.9°C 96% 5.8 mph ENE9.3 kmh ENE 10.4 mph16.7 kmh 30.09 in1019.0 mb - 0.04 in1.0 mm 0.15 in3.8 mm
03:00 AM 65.5°F18.6°C 64.0°F17.8°C 95% 3.5 mph E5.6 kmh E 11.5 mph18.5 kmh 30.09 in1019.0 mb - 0.04 in1.0 mm 0.12 in3.0 mm
02:45 AM 65.5°F18.6°C 64.0°F17.8°C 95% 6.9 mph ENE11.1 kmh ENE 13.8 mph22.2 kmh 30.07 in1018.3 mb - 0.05 in1.3 mm 0.09 in2.3 mm
02:30 AM 65.6°F18.7°C 64.1°F17.8°C 95% 8.1 mph ENE13.0 kmh ENE 13.8 mph22.2 kmh 30.08 in1018.6 mb - 0.02 in0.5 mm 0.05 in1.3 mm
02:15 AM 65.7°F18.7°C 64.2°F17.9°C 95% 9.2 mph NE14.8 kmh NE 11.5 mph18.5 kmh 30.08 in1018.6 mb - 0.02 in0.5 mm 0.03 in0.8 mm
02:00 AM 65.6°F18.7°C 64.1°F17.8°C 95% 5.8 mph NE9.3 kmh NE 13.8 mph22.2 kmh 30.07 in1018.3 mb - 0.00 in0.0 mm 0.01 in0.3 mm
01:45 AM 65.6°F18.7°C 64.1°F17.8°C 95% 10.4 mph E16.7 kmh E 10.4 mph16.7 kmh 30.07 in1018.3 mb - 0.00 in0.0 mm 0.01 in0.3 mm
01:30 AM 65.6°F18.7°C 64.1°F17.8°C 95% 5.8 mph NE9.3 kmh NE 6.9 mph11.1 kmh 30.07 in1018.3 mb - 0.00 in0.0 mm 0.01 in0.3 mm
01:15 AM 65.6°F18.7°C 64.1°F17.8°C 95% 8.1 mph NE13.0 kmh NE 12.7 mph20.4 kmh 30.07 in1018.3 mb - 0.00 in0.0 mm 0.01 in0.3 mm
01:00 AM 65.6°F18.7°C 64.1°F17.8°C 95% 6.9 mph NE11.1 kmh NE 10.4 mph16.7 kmh 30.06 in1017.9 mb - 0.00 in0.0 mm 0.01 in0.3 mm
12:45 AM 65.5°F18.6°C 64.0°F17.8°C 95% 4.6 mph NE7.4 kmh NE 9.2 mph14.8 kmh 30.07 in1018.3 mb - 0.01 in0.3 mm 0.01 in0.3 mm
12:30 AM 65.5°F18.6°C 64.0°F17.8°C 95% 9.2 mph NE14.8 kmh NE 13.8 mph22.2 kmh 30.08 in1018.6 mb - 0.00 in0.0 mm 0.00 in0.0 mm
12:15 AM 65.4°F18.6°C 63.9°F17.7°C 95% 12.7 mph ENE20.4 kmh ENE 15.0 mph24.1 kmh 30.08 in1018.6 mb - 0.00 in0.0 mm 0.00 in0.0 mm
12:01 AM 65.3°F18.5°C 63.8°F17.7°C 95% 4.6 mph ENE7.4 kmh ENE 6.9 mph11.1 kmh 30.07 in1018.3 mb - 0.00 in0.0 mm 0.00 in0.0 mm